createdAt,value
2019-01-13T00:03:54.881Z,100382.83
2019-01-13T00:06:24.514Z,100382.83
2019-01-13T00:08:53.864Z,100381.76
2019-01-13T00:11:24.806Z,100380.53
2019-01-13T00:13:54.154Z,100385.97
2019-01-13T00:16:23.767Z,100383.41
2019-01-13T00:18:53.179Z,100381.31
2019-01-13T00:21:22.823Z,100375.38
2019-01-13T00:23:52.168Z,100380.91
2019-01-13T00:26:21.808Z,100391.89
2019-01-13T00:28:51.400Z,100384.50
2019-01-13T00:31:21.020Z,100386.67
2019-01-13T00:33:50.682Z,100390.00
2019-01-13T01:02:50.195Z,100369.66
2019-01-13T01:05:20.215Z,100369.91
2019-01-13T01:08:10.771Z,100368.11
2019-01-13T01:10:40.103Z,100363.51
2019-01-13T01:13:09.756Z,100373.34
2019-01-13T01:15:39.032Z,100362.25
2019-01-13T01:18:09.006Z,100359.49
2019-01-13T01:20:38.568Z,100365.19
2019-01-13T01:23:08.226Z,100343.25
2019-01-13T01:25:37.853Z,100361.79
2019-01-13T01:28:07.209Z,100351.55
2019-01-13T01:30:36.852Z,100352.50
2019-01-13T01:33:06.183Z,100345.92
2019-01-13T01:35:37.150Z,100357.22
2019-01-13T01:38:07.069Z,100365.52
2019-01-13T01:40:36.417Z,100359.31
2019-01-13T01:43:06.040Z,100361.88
2019-01-13T01:45:35.634Z,100358.23
2019-01-13T01:48:05.349Z,100360.91
2019-01-13T01:50:35.168Z,100350.58
2019-01-13T01:53:05.271Z,100350.58
2019-01-13T01:55:34.916Z,100351.72
2019-01-13T01:58:04.505Z,100345.59
2019-01-13T02:00:40.465Z,100345.02
2019-01-13T02:03:26.002Z,100329.91
2019-01-13T02:05:55.356Z,100329.91
2019-01-13T02:08:24.980Z,100334.61
2019-01-13T02:10:54.569Z,100331.81
2019-01-13T02:13:24.037Z,100340.23
2019-01-13T02:15:53.380Z,100334.88
2019-01-13T02:18:42.017Z,100329.72
2019-01-13T02:21:11.362Z,100329.72
2019-01-13T02:23:40.991Z,100327.66
2019-01-13T02:26:10.579Z,100319.50
2019-01-13T02:28:39.974Z,100313.27
2019-01-13T02:31:09.327Z,100303.17
2019-01-13T05:54:19.737Z,100059.05
2019-01-13T05:56:49.385Z,100042.61
2019-01-13T05:59:19.107Z,100049.77
2019-01-13T06:01:49.357Z,100041.73
2019-01-13T06:04:25.106Z,100041.73
2019-01-13T06:06:54.502Z,100032.73
2019-01-13T06:09:23.856Z,100032.73
2019-01-13T06:11:54.813Z,100029.08
2019-01-13T06:14:24.522Z,100017.88
2019-01-13T06:16:53.850Z,100027.34
2019-01-13T06:19:23.514Z,100013.48
2019-01-13T06:21:52.853Z,100009.94
2019-01-13T06:24:22.757Z,99993.00
2019-01-13T06:26:52.382Z,99993.00
2019-01-13T06:29:22.025Z,99996.17
2019-01-13T06:31:56.275Z,99982.44
2019-01-13T06:34:28.689Z,99982.44
2019-01-13T06:36:58.038Z,99979.48
2019-01-13T06:48:21.831Z,99975.61
2019-01-13T06:50:51.458Z,99971.37
2019-01-13T06:53:20.828Z,99974.39
2019-01-13T06:55:50.168Z,99963.43
2019-01-13T06:58:19.827Z,99963.93
2019-01-13T07:00:49.461Z,99957.98
2019-01-13T07:03:18.839Z,99961.13
2019-01-13T07:08:50.629Z,99951.15
2019-01-13T07:11:20.312Z,99947.87
2019-01-13T07:13:49.784Z,99934.81
2019-01-13T07:16:19.104Z,99934.81
2019-01-13T07:18:48.628Z,99929.46
2019-01-13T07:21:17.978Z,99923.63
2019-01-13T07:23:50.467Z,99925.09
2019-01-13T07:26:20.091Z,99913.53
2019-01-13T07:28:49.725Z,99906.09
2019-01-13T07:31:19.052Z,99903.41
2019-01-13T07:33:48.714Z,99900.64
2019-01-13T07:36:18.046Z,99900.64
2019-01-13T07:39:00.343Z,99871.87
2019-01-13T07:41:29.741Z,99871.87
2019-01-13T07:43:59.086Z,99869.10
2019-01-13T07:46:28.232Z,99861.56
2019-01-13T07:48:58.017Z,99843.65
2019-01-13T07:51:27.635Z,99843.65
2019-01-13T07:53:56.993Z,99830.25
2019-01-13T07:56:26.646Z,99828.81
2019-01-13T07:58:55.999Z,99826.84
2019-01-13T08:01:25.347Z,99806.27
2019-01-13T08:04:07.987Z,99803.32
2019-01-13T08:06:37.619Z,99803.32
2019-01-13T10:07:43.248Z,99612.09
2019-01-13T10:10:52.641Z,99599.72
2019-01-13T10:13:24.383Z,99605.05
2019-01-13T10:15:54.060Z,99596.58
2019-01-13T10:18:25.055Z,99601.33
2019-01-13T10:20:56.070Z,99593.63
2019-01-13T10:23:31.146Z,99596.89
2019-01-13T10:26:00.480Z,99599.02
2019-01-13T10:28:30.180Z,99599.02
2019-01-13T10:31:03.291Z,99589.00
2019-01-13T10:33:40.214Z,99583.63
2019-01-13T10:36:09.831Z,99584.46
2019-01-13T10:38:39.227Z,99578.47
2019-01-13T10:41:08.555Z,99571.81
2019-01-13T10:43:38.212Z,99563.13
2019-01-13T10:46:07.542Z,99564.56
2019-01-13T10:48:56.493Z,99564.42
2019-01-13T10:51:26.117Z,99558.20
2019-01-13T10:53:55.490Z,99554.87
2019-01-13T10:56:44.189Z,99554.03
2019-01-13T10:59:13.539Z,99549.49
2019-01-13T11:01:43.244Z,99526.19
2019-01-13T11:04:12.570Z,99522.00
2019-01-13T11:06:42.186Z,99538.48
2019-01-13T11:12:04.375Z,99523.55
2019-01-13T11:14:36.358Z,99517.55
2019-01-13T11:17:06.640Z,99518.06
2019-01-13T11:19:55.839Z,99497.34
2019-01-13T11:22:25.273Z,99497.34
2019-01-13T11:24:54.602Z,99500.30
2019-01-13T11:27:24.486Z,99488.36
2019-01-13T11:29:53.804Z,99482.78
2019-01-13T11:32:23.610Z,99485.73
2019-01-13T11:34:52.953Z,99481.70
2019-01-13T11:37:22.859Z,99477.20
2019-01-13T11:39:52.657Z,99479.02
2019-01-13T11:42:22.572Z,99468.91
2019-01-13T11:45:11.848Z,99467.08
2019-01-13T11:47:41.371Z,99467.08
2019-01-13T11:50:31.533Z,99450.25
2019-01-13T11:53:00.880Z,99443.17
2019-01-13T11:55:30.450Z,99438.01
2019-01-13T11:57:59.794Z,99442.91
2019-01-13T12:03:31.456Z,99438.25
2019-01-13T12:06:00.908Z,99442.95
2019-01-13T12:08:30.344Z,99430.87
2019-01-13T12:10:59.666Z,99417.95
2019-01-13T12:13:29.008Z,99415.73
2019-01-13T12:15:58.552Z,99403.52
2019-01-13T12:18:27.891Z,99401.04
2019-01-13T12:20:57.510Z,99397.02
2019-01-13T12:23:27.152Z,99395.67
2019-01-13T12:25:56.547Z,99399.34
2019-01-13T12:28:25.871Z,99397.16
2019-01-13T12:30:55.503Z,99384.92
2019-01-13T12:33:24.951Z,99390.92
2019-01-13T12:35:54.887Z,99375.36
2019-01-13T12:41:13.047Z,99354.38
2019-01-13T12:43:42.535Z,99354.18
2019-01-13T12:46:24.582Z,99350.42
2019-01-13T12:48:53.918Z,99350.42
2019-01-13T12:51:23.743Z,99341.53
2019-01-13T12:53:53.079Z,99352.05
2019-01-13T12:56:22.714Z,99330.16
2019-01-13T12:58:52.290Z,99329.95
2019-01-13T13:01:21.958Z,99328.54
2019-01-13T13:03:51.640Z,99318.94
2019-01-13T13:06:20.973Z,99315.27
2019-01-13T13:11:43.053Z,99303.77
2019-01-13T13:14:12.695Z,99302.47
2019-01-13T13:16:43.638Z,99289.35
2019-01-13T13:19:13.008Z,99296.90
2019-01-13T13:21:42.678Z,99279.44
2019-01-13T13:26:52.024Z,99265.86
2019-01-13T13:29:21.934Z,99257.45
2019-01-13T13:31:51.920Z,99250.61
2019-01-13T13:34:42.380Z,99249.70
2019-01-13T13:37:11.865Z,99250.18
2019-01-13T13:39:41.569Z,99255.78
2019-01-13T13:42:10.844Z,99251.95
2019-01-13T13:44:40.501Z,99244.53
2019-01-13T13:47:10.032Z,99250.06
2019-01-13T13:49:39.657Z,99243.98
2019-01-13T13:52:09.000Z,99236.98
2019-01-13T13:54:38.688Z,99226.88
2019-01-13T13:57:08.014Z,99237.27
2019-01-13T13:59:37.689Z,99232.05
2019-01-13T14:02:07.016Z,99222.78
2019-01-13T14:04:36.697Z,99223.84
2019-01-13T14:07:07.048Z,99211.13
2019-01-13T14:09:36.647Z,99224.23
2019-01-13T14:12:06.985Z,99210.97
2019-01-13T14:14:36.605Z,99202.91
2019-01-13T14:17:07.053Z,99191.02
2019-01-13T14:19:36.710Z,99199.50
2019-01-13T14:22:08.019Z,99200.69
2019-01-13T14:24:37.353Z,99195.79
2019-01-13T14:27:07.260Z,99197.80
2019-01-13T14:29:36.738Z,99194.80
2019-01-13T14:32:07.140Z,99187.73
2019-01-13T14:34:36.746Z,99176.99
2019-01-13T14:37:07.085Z,99193.11
2019-01-13T14:39:36.783Z,99189.94
2019-01-13T14:42:07.348Z,99187.61
2019-01-13T14:44:37.163Z,99188.00
2019-01-13T14:47:07.199Z,99167.05
2019-01-13T14:49:37.485Z,99163.66
2019-01-13T14:52:17.010Z,99125.33
2019-01-13T14:54:47.025Z,99125.33
2019-01-13T14:57:36.800Z,99122.70
2019-01-13T15:00:27.595Z,99136.93
2019-01-13T15:02:56.925Z,99137.38
2019-01-13T15:05:26.323Z,99142.75
2019-01-13T15:07:55.768Z,99135.77
2019-01-13T15:13:26.791Z,99130.38
2019-01-13T15:15:56.480Z,99127.33
2019-01-13T15:18:26.302Z,99122.79
2019-01-13T15:20:55.935Z,99126.47
2019-01-13T15:23:25.258Z,99144.91
2019-01-13T15:25:59.979Z,99133.18
2019-01-13T15:28:29.303Z,99139.41
2019-01-13T15:30:58.846Z,99132.55
2019-01-13T15:33:28.175Z,99118.77
2019-01-13T15:35:57.579Z,99115.63
2019-01-13T15:42:00.961Z,99136.67
2019-01-13T15:44:30.288Z,99117.36
2019-01-13T15:46:59.879Z,99112.85
2019-01-13T15:49:29.207Z,99117.71
2019-01-13T15:52:18.440Z,99105.53
2019-01-13T15:57:34.245Z,99095.30
2019-01-13T16:00:35.019Z,99101.50
2019-01-13T16:03:25.403Z,99096.99
2019-01-13T16:05:54.967Z,99097.86
2019-01-13T16:08:37.385Z,99091.48
2019-01-13T16:11:07.434Z,99092.30
2019-01-13T16:13:36.984Z,99081.17
2019-01-13T16:16:07.307Z,99092.39
2019-01-13T16:18:36.934Z,99109.02
2019-01-13T16:21:07.328Z,99089.86
2019-01-13T16:23:37.029Z,99101.13
2019-01-13T16:26:07.308Z,99099.42
2019-01-13T16:28:36.941Z,99104.38
2019-01-13T16:31:07.373Z,99140.31
2019-01-13T16:33:37.071Z,99140.31
2019-01-13T16:36:07.364Z,99187.86
2019-01-13T16:38:37.067Z,99169.70
2019-01-13T16:41:07.535Z,99155.44
2019-01-13T16:43:37.027Z,99154.86
2019-01-13T16:46:07.436Z,99154.77
2019-01-13T16:48:37.055Z,99156.22
2019-01-13T16:51:07.419Z,99146.15
2019-01-13T16:53:37.258Z,99148.55
2019-01-13T16:56:07.334Z,99157.17
2019-01-13T16:58:36.674Z,99159.77
2019-01-13T17:01:07.426Z,99158.38
2019-01-13T17:03:37.306Z,99152.45
2019-01-13T17:06:26.723Z,99153.23
2019-01-13T17:09:10.111Z,99151.53
2019-01-13T17:11:39.457Z,99151.53
2019-01-13T17:14:09.437Z,99133.76
2019-01-13T17:16:39.098Z,99164.94
2019-01-13T17:19:08.447Z,99165.56
2019-01-13T17:21:50.182Z,99159.48
2019-01-13T17:24:20.728Z,99159.48
2019-01-13T17:26:50.310Z,99176.07
2019-01-13T17:29:19.940Z,99176.07
2019-01-13T17:32:08.642Z,99151.59
2019-01-13T17:34:50.302Z,99162.67
2019-01-13T17:37:19.628Z,99162.67
2019-01-13T17:42:57.636Z,99149.57
2019-01-13T17:45:39.128Z,99159.84
2019-01-13T17:48:09.652Z,99159.84
2019-01-13T17:50:39.115Z,99148.98
2019-01-13T17:53:10.435Z,99148.98
2019-01-13T17:55:39.753Z,99154.86
2019-01-13T17:58:14.747Z,99150.48
2019-01-13T18:01:05.122Z,99159.86
2019-01-13T18:06:56.483Z,99158.80
2019-01-13T18:09:26.113Z,99147.21
2019-01-13T18:11:55.433Z,99147.21
2019-01-13T18:14:25.363Z,99156.67
2019-01-13T18:16:54.674Z,99173.94
2019-01-13T18:19:24.640Z,99166.27
2019-01-13T18:21:54.188Z,99161.41
2019-01-13T18:24:23.594Z,99161.41
2019-01-13T18:26:53.200Z,99158.73
2019-01-13T18:29:22.822Z,99143.78
2019-01-13T18:31:52.333Z,99148.58
2019-01-13T18:34:21.705Z,99154.50
2019-01-13T18:37:10.649Z,99158.72
2019-01-13T18:39:53.213Z,99184.03
2019-01-13T18:42:22.537Z,99184.03
2019-01-13T18:44:52.404Z,99195.55
2019-01-13T18:47:21.983Z,99188.20
2019-01-13T18:49:51.474Z,99196.59
2019-01-13T18:52:20.796Z,99196.66
2019-01-13T18:54:50.603Z,99193.69
2019-01-13T18:57:20.247Z,99193.69
2019-01-13T18:59:49.816Z,99195.02
2019-01-13T19:02:19.501Z,99212.50
2019-01-13T19:04:48.835Z,99234.32
2019-01-13T19:07:18.451Z,99206.21
2019-01-13T19:09:47.791Z,99223.83
2019-01-13T19:12:17.405Z,99223.53
2019-01-13T19:14:46.745Z,99217.20
2019-01-13T19:17:16.359Z,99214.84
2019-01-13T19:19:45.698Z,99226.58
2019-01-13T19:22:15.311Z,99209.26
2019-01-13T19:24:44.982Z,99215.31
2019-01-13T19:27:14.588Z,99212.64
2019-01-13T19:29:45.567Z,99216.45
2019-01-13T19:38:12.569Z,99230.46
2019-01-13T19:40:41.904Z,99231.03
2019-01-13T19:46:07.908Z,99244.91
2019-01-13T19:48:37.798Z,99241.19
2019-01-13T19:51:07.787Z,99241.19
2019-01-13T19:53:57.084Z,99231.53
2019-01-13T19:56:26.434Z,99231.53
2019-01-13T19:58:55.762Z,99250.66
2019-01-13T20:01:25.392Z,99242.73
2019-01-13T20:03:54.711Z,99241.39
2019-01-13T20:06:24.046Z,99246.63
2019-01-13T20:11:42.509Z,99243.03
2019-01-13T20:14:11.841Z,99257.72
2019-01-13T20:16:41.471Z,99259.89
2019-01-13T20:19:10.855Z,99251.22
2019-01-13T20:24:33.597Z,99253.91
2019-01-13T20:27:02.936Z,99253.91
2019-01-13T20:32:28.757Z,99264.53
2019-01-13T20:34:59.715Z,99259.32
2019-01-13T20:37:29.093Z,99255.09
2019-01-13T20:39:58.951Z,99256.64
2019-01-13T20:42:29.883Z,99256.64
2019-01-13T20:45:00.887Z,99264.53
2019-01-13T20:50:58.972Z,99259.38
2019-01-13T20:53:41.665Z,99272.83
2019-01-13T20:56:11.811Z,99272.83
2019-01-13T20:58:41.135Z,99263.24
2019-01-13T21:01:10.763Z,99272.12
2019-01-13T21:03:40.111Z,99269.44
2019-01-13T21:06:09.965Z,99269.94
2019-01-13T21:08:39.596Z,99269.17
2019-01-13T21:11:09.208Z,99270.16
2019-01-13T21:13:52.828Z,99260.00
2019-01-13T21:16:22.162Z,99260.00
2019-01-13T21:19:11.158Z,99275.34
2019-01-13T21:21:52.668Z,99269.89
2019-01-13T21:24:22.284Z,99269.89
2019-01-13T21:26:51.809Z,99275.23
2019-01-13T21:29:21.141Z,99284.50
2019-01-13T21:32:10.014Z,99281.19
2019-01-13T21:34:51.577Z,99285.72
2019-01-13T21:37:21.164Z,99285.72
2019-01-13T21:39:50.619Z,99294.88
2019-01-13T21:42:32.408Z,99284.56
2019-01-13T21:45:13.790Z,99299.40
2019-01-13T21:47:43.270Z,99299.40
2019-01-13T21:50:32.236Z,99300.95
2019-01-13T21:53:01.574Z,99296.47
2019-01-13T21:55:30.907Z,99301.20
2019-01-13T21:58:00.567Z,99300.23
2019-01-13T22:00:29.911Z,99297.55
2019-01-13T22:02:59.255Z,99310.94
2019-01-13T22:05:28.858Z,99304.57
2019-01-13T22:07:58.457Z,99303.12
2019-01-13T22:10:28.081Z,99320.17
2019-01-13T22:13:03.928Z,99323.28
2019-01-13T22:15:33.248Z,99321.94
2019-01-13T22:18:02.887Z,99320.81
2019-01-13T22:20:32.550Z,99322.16
2019-01-13T22:23:01.877Z,99308.30
2019-01-13T22:25:31.454Z,99330.84
2019-01-13T22:28:00.900Z,99338.52
2019-01-13T22:30:30.215Z,99352.89
2019-01-13T22:33:00.196Z,99352.67
2019-01-13T22:35:49.211Z,99359.87
2019-01-13T22:38:18.846Z,99359.87
2019-01-13T22:40:48.862Z,99383.58
2019-01-13T22:43:20.146Z,99380.64
2019-01-13T22:45:49.754Z,99397.16
2019-01-13T22:48:41.204Z,99397.16
2019-01-13T22:51:10.776Z,99393.13
2019-01-13T22:53:41.922Z,99405.83
2019-01-13T22:56:11.253Z,99405.83
2019-01-13T22:58:40.852Z,99413.80
2019-01-13T23:01:31.083Z,99427.92
2019-01-13T23:04:19.822Z,99439.61
2019-01-13T23:06:49.149Z,99446.89
2019-01-13T23:09:18.581Z,99447.25
2019-01-13T23:15:03.105Z,99457.89
2019-01-13T23:17:32.425Z,99459.92
2019-01-13T23:20:01.974Z,99469.55
2019-01-13T23:22:31.305Z,99469.55
2019-01-13T23:25:00.874Z,99466.79
2019-01-13T23:27:31.830Z,99466.79
2019-01-13T23:30:01.173Z,99471.67
2019-01-13T23:32:30.518Z,99488.50
2019-01-13T23:34:59.975Z,99480.48
2019-01-13T23:37:29.307Z,99481.61
2019-01-13T23:40:11.912Z,99484.64
2019-01-13T23:42:41.234Z,99484.64
2019-01-13T23:45:10.569Z,99497.67
2019-01-13T23:47:40.103Z,99509.36
2019-01-13T23:50:09.514Z,99520.09
2019-01-13T23:52:51.754Z,99522.91
2019-01-13T23:55:21.572Z,99522.91
2019-01-13T23:57:51.252Z,99526.19
